Currently 50°F in Perris, California, USA
50°F
56°F / 49°F
calm
0.00"
Wednesday, April 26, 2017 6:50 AM PDT

Perris, California Weather Summary
Last 36 Hours

Temperature Winds Hourly Humidity Dewpoint
Time Report Norm Report Norm Max Gusts Precip. Rpt. Norm Rpt. Norm Pressure
1Wed 06:50 AM  49.7°F  52°F  calm  2 mph  none  0.00"  91%  81%  47°F  47°F  29.94"
3Wed 06:09 AM  49.1°F  52°F  3 mph SE  2 mph  4 mph  ----  92%  80%  47°F  46°F  29.93"
Wed 06:00 AM  49.8°F  53°F  4 mph S  2 mph  9 mph  0.00"  88%  80%  46°F  46°F  29.93"
Wed 05:00 AM  51.4°F  53°F  5 mph E  2 mph  4 mph  0.00"  89%  80%  48°F  47°F  29.93"
Wed 04:00 AM  52.8°F  54°F  calm  2 mph  3 mph  0.00"  83%  79%  48°F  47°F  29.93"
Wed 03:00 AM  53.5°F  54°F  calm  2 mph  2 mph  0.00"  81%  79%  48°F  48°F  29.93"
Wed 02:00 AM  55.0°F  55°F  2 mph SE  2 mph  3 mph  0.00"  80%  77%  49°F  48°F  29.91"
Wed 01:00 AM  55.2°F  56°F  2 mph E  3 mph  6 mph  0.00"  80%  76%  49°F  48°F  29.93"
2Wed 12:09 AM  55.8°F  57°F  3 mph SE  3 mph  6 mph  ----  77%  75%  49°F  48°F  29.94"
Wed 12:00 AM  55.6°F  57°F  4 mph SE  3 mph  6 mph  0.00"  77%  74%  48°F  48°F  29.94"
Tue 11:00 PM  56.6°F  58°F  4 mph SE  3 mph  7 mph  0.00"  76%  71%  49°F  48°F  29.94"
Tue 10:00 PM  58.2°F  60°F  4 mph S  3 mph  9 mph  0.00"  72%  66%  49°F  48°F  29.93"
Tue 09:00 PM  60.3°F  62°F  5 mph S  3 mph  11 mph  0.00"  68%  61%  49°F  48°F  29.92"
Tue 08:00 PM  63.4°F  65°F  6 mph S  4 mph  9 mph  0.00"  64%  55%  50°F  47°F  29.90"
Tue 07:00 PM  67.7°F  68°F  4 mph W  5 mph  13 mph  0.00"  48%  46%  46°F  46°F  29.87"
Tue 06:00 PM  68.7°F  72°F  8 mph NW  6 mph  13 mph  0.00"  46%  40%  46°F  45°F  29.87"
Tue 05:00 PM  71.0°F  74°F  3 mph NW  7 mph  13 mph  0.00"  44%  36%  47°F  44°F  29.87"
Tue 04:00 PM  69.7°F  76°F  4 mph W  6 mph  13 mph  0.00"  46%  34%  47°F  44°F  29.86"
Tue 03:00 PM  69.5°F  76°F  8 mph W  5 mph  14 mph  0.00"  49%  32%  49°F  43°F  29.89"
Tue 02:00 PM  70.1°F  75°F  2 mph SW  5 mph  14 mph  0.00"  48%  33%  49°F  43°F  29.87"
Tue 01:00 PM  69.6°F  74°F  1 mph SW  4 mph  11 mph  0.00"  48%  35%  48°F  43°F  29.92"
Tue 12:00 PM  68.5°F  71°F  1 mph SW  3 mph  9 mph  0.00"  54%  39%  51°F  44°F  29.92"
Tue 11:00 AM  66.0°F  68°F  3 mph SW  3 mph  10 mph  0.00"  62%  46%  52°F  46°F  29.93"
Tue 10:00 AM  61.2°F  64°F  1 mph S  3 mph  11 mph  0.00"  74%  56%  52°F  48°F  29.93"
Tue 09:00 AM  57.1°F  60°F  7 mph S  2 mph  15 mph  0.00"  86%  68%  53°F  49°F  29.93"
Tue 08:00 AM  54.8°F  55°F  5 mph S  2 mph  12 mph  0.00"  95%  79%  53°F  49°F  29.92"
Tue 07:00 AM  53.2°F  52°F  5 mph S  2 mph  9 mph  0.00"  97%  82%  52°F  47°F  29.89"
Tue 06:00 AM  53.3°F  52°F  4 mph S  2 mph  7 mph  0.00"  97%  81%  52°F  47°F  29.88"
Tue 05:00 AM  52.9°F  53°F  1 mph SE  2 mph  10 mph  0.00"  96%  81%  52°F  47°F  29.87"
Tue 04:00 AM  54.4°F  54°F  5 mph S  2 mph  11 mph  0.00"  94%  80%  53°F  47°F  29.86"
Tue 03:00 AM  55.7°F  54°F  5 mph S  2 mph  9 mph  0.00"  92%  79%  53°F  48°F  29.87"
Tue 02:00 AM  55.3°F  55°F  5 mph S  2 mph  10 mph  0.00"  92%  78%  53°F  48°F  29.88"
Tue 01:00 AM  55.4°F  56°F  6 mph S  3 mph  11 mph  0.00"  93%  76%  53°F  48°F  29.88"
Tue 12:00 AM  56.1°F  57°F  5 mph S  3 mph  13 mph  0.00"  93%  74%  54°F  49°F  29.88"
Mon 11:00 PM  57.0°F  58°F  7 mph S  3 mph  12 mph  0.00"  92%  71%  55°F  48°F  29.86"
Mon 10:00 PM  57.3°F  60°F  5 mph S  3 mph  13 mph  0.00"  91%  66%  55°F  48°F  29.87"
Mon 09:00 PM  58.9°F  62°F  3 mph S  3 mph  14 mph  0.00"  89%  60%  55°F  48°F  29.87"
Mon 08:00 PM  62.1°F  65°F  6 mph NW  4 mph  14 mph  0.00"  76%  54%  54°F  47°F  29.85"
Mon 07:00 PM  64.3°F  69°F  10 mph W  5 mph  15 mph  0.00"  70%  46%  54°F  46°F  29.84"

  1. Current weather data. No green row appears if the current weather data is also the high or low for the current day.
  2. High temperature for the current day.
  3. Low temperature for the current day.

The Perris, California weather pages are a service of WeatherCurrents. Perris is located in Southern California's Inland Empire, south of Riverside and north of Sun City, along the Interstate 215 freeway.
Copyright ©Wed Apr 26 06:51:00 PDT 2017  WeatherCurrents. All rights reserved. - Submit questions and comments - Privacy Policy

This page automatically refreshes every 10 minutes.